This is the latest recevied weather packets stored in our database for station/object EA3ABN-1. If no packets are shown the sender has not sent any weather packets the latest 10 day(s).
| Time | Temp. | Humidity | Pressure | Rain* | Wind** | Luminosity | Snow |
|---|---|---|---|---|---|---|---|
| 1777158576 | 22.78° C | 32% | 1015.3 hPa | - | - | - | - |
| 1777156776 | 22.78° C | 33% | 1015.1 hPa | - | - | - | - |
| 1777156176 | 23.33° C | 32% | 1015.1 hPa | - | - | - | - |
| 1777155877 | 23.33° C | 32% | 1015.2 hPa | - | - | - | - |
| 1777155576 | 23.89° C | 32% | 1015.3 hPa | - | - | - | - |
| 1777154976 | 23.89° C | 32% | 1015.3 hPa | - | - | - | - |
| 1777154076 | 24.44° C | 32% | 1015.4 hPa | - | - | - | - |
| 1777153776 | 24.44° C | 32% | 1015.3 hPa | - | - | - | - |
| 1777153492 | 24.44° C | 32% | 1015.3 hPa | - | - | - | - |
| 1777152276 | 25.56° C | 30% | 1015.2 hPa | - | - | - | - |
| 1777151676 | 26.11° C | 30% | 1015.2 hPa | - | - | - | - |
| 1777147176 | 27.78° C | 30% | 1015.1 hPa | - | - | - | - |
| 1777145975 | 27.78° C | 30% | 1014.7 hPa | - | - | - | - |
| 1777142676 | 29.44° C | 30% | 1013.9 hPa | - | - | - | - |
| 1777141491 | 29.44° C | 29% | 1013.8 hPa | - | - | - | - |
| 1777139375 | 30° C | 29% | 1013.6 hPa | - | - | - | - |
| 1777139107 | 30° C | 29% | 1013.6 hPa | - | - | - | - |
| 1777138176 | 30.56° C | 29% | 1013.6 hPa | - | - | - | - |
| 1777136976 | 30° C | 30% | 1013.8 hPa | - | - | - | - |
| 1777136675 | 30° C | 30% | 1013.8 hPa | - | - | - | - |
| 1777133375 | 32.22° C | 31% | 1013.4 hPa | - | - | - | - |
| 1777132791 | 32.78° C | 31% | 1013.2 hPa | - | - | - | - |
| 1777131291 | 33.33° C | 32% | 1013 hPa | - | - | - | - |
| 1777125575 | 31.67° C | 31% | 1013.2 hPa | - | - | - | - |
| 1777124675 | 31.11° C | 32% | 1013.3 hPa | - | - | - | - |
* Rain since midnight (hover to see other rain measurements)
** Current wind speed in m/s (hover to see current wind gust speed)